Yoder, Indiana
Current Conditions -  °F | °C
As of 8:54 AM on Sunday 25 Jan 2015 (Local Time) from KFWA Reporting Station
Haze Haze  
Wind Chill: 30°   Ceiling: 1200
Heat Index: 34°   Visibility: 6mi
Dew Point: 31°   Wind: 5mph
Humidity: 89%   Direction: 90°E
Pressure: 29.74"   Gusts: NA
Location:  40.93°N, 85.18°W
Report Text: KFWA 251354Z 09004KT 6SM BR OVC012 01/M01 A2974 RMK AO2 SLP078 T00111006
Loading
Personal Weather Stations






























Interactive Weather Map New forecast layout! Learn more

10-Day Weather Forecast

Advertisements
Track Severe Weather on mobile